sensor_id;sensor_type;location;lat;lon;timestamp;pressure;altitude;pressure_sealevel;temperature;humidity
58955;BME280;45815;52.334;5.024;2023-04-03T00:02:03;103123.81;;;5.91;100.00
58955;BME280;45815;52.334;5.024;2023-04-03T00:04:28;103125.59;;;5.92;100.00
58955;BME280;45815;52.334;5.024;2023-04-03T00:06:53;103124.69;;;5.91;100.00
58955;BME280;45815;52.334;5.024;2023-04-03T00:09:19;103121.53;;;5.84;100.00
58955;BME280;45815;52.334;5.024;2023-04-03T00:11:45;103129.34;;;5.84;100.00
58955;BME280;45815;52.334;5.024;2023-04-03T00:14:11;103127.78;;;5.86;100.00
58955;BME280;45815;52.334;5.024;2023-04-03T00:16:36;103132.72;;;5.83;100.00
58955;BME280;45815;52.334;5.024;2023-04-03T00:19:02;103130.59;;;5.77;100.00
58955;BME280;45815;52.334;5.024;2023-04-03T00:21:27;103132.97;;;5.74;100.00
58955;BME280;45815;52.334;5.024;2023-04-03T00:23:52;103127.41;;;5.69;100.00
58955;BME280;45815;52.334;5.024;2023-04-03T00:26:18;103130.44;;;5.64;100.00
58955;BME280;45815;52.334;5.024;2023-04-03T00:28:44;103125.34;;;5.65;100.00
58955;BME280;45815;52.334;5.024;2023-04-03T00:31:10;103127.97;;;5.65;100.00
58955;BME280;45815;52.334;5.024;2023-04-03T00:33:35;103137.56;;;5.66;100.00
58955;BME280;45815;52.334;5.024;2023-04-03T00:36:10;103127.38;;;5.58;100.00
58955;BME280;45815;52.334;5.024;2023-04-03T00:38:36;103135.41;;;5.61;100.00
58955;BME280;45815;52.334;5.024;2023-04-03T00:41:02;103125.56;;;5.57;100.00
58955;BME280;45815;52.334;5.024;2023-04-03T00:43:28;103128.59;;;5.51;100.00
58955;BME280;45815;52.334;5.024;2023-04-03T00:45:58;103131.09;;;5.49;100.00
58955;BME280;45815;52.334;5.024;2023-04-03T00:48:37;103122.56;;;5.40;100.00
58955;BME280;45815;52.334;5.024;2023-04-03T00:51:06;103138.13;;;5.50;100.00
58955;BME280;45815;52.334;5.024;2023-04-03T00:53:39;103138.69;;;5.46;100.00
58955;BME280;45815;52.334;5.024;2023-04-03T00:56:09;103114.19;;;5.33;100.00
58955;BME280;45815;52.334;5.024;2023-04-03T00:58:40;103136.38;;;5.39;100.00
58955;BME280;45815;52.334;5.024;2023-04-03T01:01:08;103133.91;;;5.41;100.00
58955;BME280;45815;52.334;5.024;2023-04-03T01:03:36;103138.88;;;5.38;100.00
58955;BME280;45815;52.334;5.024;2023-04-03T01:06:04;103143.84;;;5.35;100.00
58955;BME280;45815;52.334;5.024;2023-04-03T01:08:30;103150.63;;;5.33;100.00
58955;BME280;45815;52.334;5.024;2023-04-03T01:10:55;103136.59;;;5.31;100.00
58955;BME280;45815;52.334;5.024;2023-04-03T01:13:28;103147.66;;;5.28;100.00
58955;BME280;45815;52.334;5.024;2023-04-03T01:15:54;103150.16;;;5.26;100.00
58955;BME280;45815;52.334;5.024;2023-04-03T01:18:24;103154.22;;;5.23;100.00
58955;BME280;45815;52.334;5.024;2023-04-03T01:23:57;103150.66;;;5.11;100.00
58955;BME280;45815;52.334;5.024;2023-04-03T01:26:25;103149.44;;;5.17;100.00
58955;BME280;45815;52.334;5.024;2023-04-03T01:28:53;103142.41;;;5.16;100.00
58955;BME280;45815;52.334;5.024;2023-04-03T01:34:01;103149.63;;;5.08;100.00
58955;BME280;45815;52.334;5.024;2023-04-03T01:36:30;103145.09;;;5.06;100.00
58955;BME280;45815;52.334;5.024;2023-04-03T01:38:58;103146.53;;;5.02;100.00
58955;BME280;45815;52.334;5.024;2023-04-03T01:41:24;103149.59;;;4.97;100.00
58955;BME280;45815;52.334;5.024;2023-04-03T01:43:54;103150.25;;;4.94;100.00
58955;BME280;45815;52.334;5.024;2023-04-03T01:46:20;103155.31;;;4.93;100.00
58955;BME280;45815;52.334;5.024;2023-04-03T01:48:46;103145.75;;;4.81;100.00
58955;BME280;45815;52.334;5.024;2023-04-03T01:51:11;103148.59;;;4.84;100.00
58955;BME280;45815;52.334;5.024;2023-04-03T01:53:37;103152.53;;;4.79;100.00
58955;BME280;45815;52.334;5.024;2023-04-03T01:56:03;103155.78;;;4.77;100.00
58955;BME280;45815;52.334;5.024;2023-04-03T01:58:30;103151.13;;;4.73;100.00
58955;BME280;45815;52.334;5.024;2023-04-03T02:00:56;103161.16;;;4.68;100.00
58955;BME280;45815;52.334;5.024;2023-04-03T02:03:21;103147.69;;;4.62;100.00
58955;BME280;45815;52.334;5.024;2023-04-03T02:05:47;103152.97;;;4.63;100.00
58955;BME280;45815;52.334;5.024;2023-04-03T02:08:13;103160.44;;;4.59;100.00
58955;BME280;45815;52.334;5.024;2023-04-03T02:10:39;103160.31;;;4.57;100.00
58955;BME280;45815;52.334;5.024;2023-04-03T02:13:05;103145.66;;;4.48;100.00
58955;BME280;45815;52.334;5.024;2023-04-03T02:15:31;103161.09;;;4.56;100.00
58955;BME280;45815;52.334;5.024;2023-04-03T02:17:56;103166.94;;;4.54;100.00
58955;BME280;45815;52.334;5.024;2023-04-03T02:20:22;103164.91;;;4.50;100.00
58955;BME280;45815;52.334;5.024;2023-04-03T02:22:48;103149.47;;;4.41;100.00
58955;BME280;45815;52.334;5.024;2023-04-03T02:25:14;103160.75;;;4.41;100.00
58955;BME280;45815;52.334;5.024;2023-04-03T02:27:40;103160.53;;;4.38;100.00
58955;BME280;45815;52.334;5.024;2023-04-03T02:30:06;103153.91;;;4.32;100.00
58955;BME280;45815;52.334;5.024;2023-04-03T02:32:31;103171.44;;;4.34;100.00
58955;BME280;45815;52.334;5.024;2023-04-03T02:34:57;103173.81;;;4.31;100.00
58955;BME280;45815;52.334;5.024;2023-04-03T02:37:23;103170.94;;;4.28;100.00
58955;BME280;45815;52.334;5.024;2023-04-03T02:39:50;103175.00;;;4.25;100.00
58955;BME280;45815;52.334;5.024;2023-04-03T02:42:15;103172.78;;;4.19;100.00
58955;BME280;45815;52.334;5.024;2023-04-03T02:44:41;103176.97;;;4.17;100.00
58955;BME280;45815;52.334;5.024;2023-04-03T02:47:08;103167.09;;;4.13;100.00
58955;BME280;45815;52.334;5.024;2023-04-03T02:49:34;103168.13;;;4.05;100.00
58955;BME280;45815;52.334;5.024;2023-04-03T02:51:59;103162.94;;;4.05;100.00
58955;BME280;45815;52.334;5.024;2023-04-03T02:54:24;103178.81;;;4.08;100.00
58955;BME280;45815;52.334;5.024;2023-04-03T02:56:54;103183.19;;;4.09;100.00
58955;BME280;45815;52.334;5.024;2023-04-03T02:59:20;103197.00;;;4.08;100.00
58955;BME280;45815;52.334;5.024;2023-04-03T03:01:45;103190.84;;;4.07;100.00
58955;BME280;45815;52.334;5.024;2023-04-03T03:04:11;103184.13;;;3.99;100.00
58955;BME280;45815;52.334;5.024;2023-04-03T03:06:36;103195.56;;;4.01;100.00
58955;BME280;45815;52.334;5.024;2023-04-03T03:09:02;103179.34;;;3.93;100.00
58955;BME280;45815;52.334;5.024;2023-04-03T03:11:29;103195.66;;;4.02;100.00
58955;BME280;45815;52.334;5.024;2023-04-03T03:13:54;103202.47;;;4.00;100.00
58955;BME280;45815;52.334;5.024;2023-04-03T03:16:20;103197.25;;;4.00;100.00
58955;BME280;45815;52.334;5.024;2023-04-03T03:18:45;103195.44;;;3.99;100.00
58955;BME280;45815;52.334;5.024;2023-04-03T03:21:11;103202.19;;;3.97;100.00
58955;BME280;45815;52.334;5.024;2023-04-03T03:23:36;103198.16;;;3.91;100.00
58955;BME280;45815;52.334;5.024;2023-04-03T03:26:05;103196.09;;;3.87;100.00
58955;BME280;45815;52.334;5.024;2023-04-03T03:28:33;103201.03;;;3.84;100.00
58955;BME280;45815;52.334;5.024;2023-04-03T03:30:59;103194.16;;;3.74;100.00
58955;BME280;45815;52.334;5.024;2023-04-03T03:33:25;103194.03;;;3.72;100.00
58955;BME280;45815;52.334;5.024;2023-04-03T03:35:52;103206.09;;;3.72;100.00
58955;BME280;45815;52.334;5.024;2023-04-03T03:38:18;103207.53;;;3.68;100.00
58955;BME280;45815;52.334;5.024;2023-04-03T03:40:43;103191.69;;;3.55;100.00
58955;BME280;45815;52.334;5.024;2023-04-03T03:43:09;103205.94;;;3.60;100.00
58955;BME280;45815;52.334;5.024;2023-04-03T03:45:35;103206.88;;;3.61;100.00
58955;BME280;45815;52.334;5.024;2023-04-03T03:48:01;103206.59;;;3.57;100.00
58955;BME280;45815;52.334;5.024;2023-04-03T03:50:27;103209.19;;;3.57;100.00
58955;BME280;45815;52.334;5.024;2023-04-03T03:52:52;103196.72;;;3.53;100.00
58955;BME280;45815;52.334;5.024;2023-04-03T03:55:18;103206.34;;;3.54;100.00
58955;BME280;45815;52.334;5.024;2023-04-03T03:57:46;103200.13;;;3.52;100.00
58955;BME280;45815;52.334;5.024;2023-04-03T04:00:12;103199.97;;;3.51;100.00
58955;BME280;45815;52.334;5.024;2023-04-03T04:02:41;103209.97;;;3.46;100.00
58955;BME280;45815;52.334;5.024;2023-04-03T04:05:10;103209.06;;;3.46;100.00
58955;BME280;45815;52.334;5.024;2023-04-03T04:07:36;103214.41;;;3.47;100.00
58955;BME280;45815;52.334;5.024;2023-04-03T04:10:03;103215.94;;;3.45;100.00
58955;BME280;45815;52.334;5.024;2023-04-03T04:12:30;103215.94;;;3.45;100.00
58955;BME280;45815;52.334;5.024;2023-04-03T04:14:55;103217.75;;;3.46;100.00
58955;BME280;45815;52.334;5.024;2023-04-03T04:17:21;103226.47;;;3.47;100.00
58955;BME280;45815;52.334;5.024;2023-04-03T04:19:47;103225.69;;;3.48;100.00
58955;BME280;45815;52.334;5.024;2023-04-03T04:22:13;103222.19;;;3.47;100.00
58955;BME280;45815;52.334;5.024;2023-04-03T04:24:38;103218.69;;;3.47;100.00
58955;BME280;45815;52.334;5.024;2023-04-03T04:27:04;103215.56;;;3.51;100.00
58955;BME280;45815;52.334;5.024;2023-04-03T04:29:31;103212.31;;;3.53;100.00
58955;BME280;45815;52.334;5.024;2023-04-03T04:32:04;103215.19;;;3.56;100.00
58955;BME280;45815;52.334;5.024;2023-04-03T04:34:29;103219.59;;;3.57;100.00
58955;BME280;45815;52.334;5.024;2023-04-03T04:36:56;103215.59;;;3.61;100.00
58955;BME280;45815;52.334;5.024;2023-04-03T04:39:21;103225.44;;;3.65;100.00
58955;BME280;45815;52.334;5.024;2023-04-03T04:41:47;103218.28;;;3.63;100.00
58955;BME280;45815;52.334;5.024;2023-04-03T04:44:13;103212.06;;;3.50;100.00
58955;BME280;45815;52.334;5.024;2023-04-03T04:46:39;103218.03;;;3.49;100.00
58955;BME280;45815;52.334;5.024;2023-04-03T04:49:06;103230.72;;;3.46;100.00
58955;BME280;45815;52.334;5.024;2023-04-03T04:51:32;103224.13;;;3.40;100.00
58955;BME280;45815;52.334;5.024;2023-04-03T04:53:58;103243.31;;;3.42;100.00
58955;BME280;45815;52.334;5.024;2023-04-03T04:56:23;103229.94;;;3.37;100.00
58955;BME280;45815;52.334;5.024;2023-04-03T04:58:51;103229.53;;;3.32;100.00
58955;BME280;45815;52.334;5.024;2023-04-03T05:01:19;103233.56;;;3.29;100.00
58955;BME280;45815;52.334;5.024;2023-04-03T05:03:52;103242.91;;;3.27;100.00
58955;BME280;45815;52.334;5.024;2023-04-03T05:06:19;103246.28;;;3.26;100.00
58955;BME280;45815;52.334;5.024;2023-04-03T05:08:44;103246.28;;;3.26;100.00
58955;BME280;45815;52.334;5.024;2023-04-03T05:11:10;103247.53;;;3.21;100.00
58955;BME280;45815;52.334;5.024;2023-04-03T05:13:36;103252.75;;;3.21;100.00
58955;BME280;45815;52.334;5.024;2023-04-03T05:16:02;103251.84;;;3.20;100.00
58955;BME280;45815;52.334;5.024;2023-04-03T05:18:28;103251.97;;;3.22;100.00
58955;BME280;45815;52.334;5.024;2023-04-03T05:20:56;103258.22;;;3.24;100.00
58955;BME280;45815;52.334;5.024;2023-04-03T05:23:24;103256.38;;;3.23;100.00
58955;BME280;45815;52.334;5.024;2023-04-03T05:25:50;103256.38;;;3.23;100.00
58955;BME280;45815;52.334;5.024;2023-04-03T05:28:16;103254.06;;;3.26;100.00
58955;BME280;45815;52.334;5.024;2023-04-03T05:30:42;103265.63;;;3.29;100.00
58955;BME280;45815;52.334;5.024;2023-04-03T05:33:08;103265.75;;;3.31;100.00
58955;BME280;45815;52.334;5.024;2023-04-03T05:35:39;103269.13;;;3.30;100.00
58955;BME280;45815;52.334;5.024;2023-04-03T05:38:08;103278.84;;;3.32;100.00
58955;BME280;45815;52.334;5.024;2023-04-03T05:40:34;103272.66;;;3.41;100.00
58955;BME280;45815;52.334;5.024;2023-04-03T05:43:00;103281.91;;;3.47;100.00
58955;BME280;45815;52.334;5.024;2023-04-03T05:45:29;103276.22;;;3.51;100.00
58955;BME280;45815;52.334;5.024;2023-04-03T05:47:56;103271.28;;;3.54;100.00
58955;BME280;45815;52.334;5.024;2023-04-03T05:50:22;103271.81;;;3.61;100.00
58955;BME280;45815;52.334;5.024;2023-04-03T05:52:52;103277.50;;;3.67;100.00
58955;BME280;45815;52.334;5.024;2023-04-03T05:55:19;103275.47;;;3.73;100.00
58955;BME280;45815;52.334;5.024;2023-04-03T05:57:45;103279.84;;;3.74;100.00
58955;BME280;45815;52.334;5.024;2023-04-03T06:00:13;103280.16;;;3.77;100.00
58955;BME280;45815;52.334;5.024;2023-04-03T06:02:42;103279.22;;;3.76;100.00
58955;BME280;45815;52.334;5.024;2023-04-03T06:05:13;103280.41;;;3.80;100.00
58955;BME280;45815;52.334;5.024;2023-04-03T06:07:40;103277.00;;;3.81;100.00
58955;BME280;45815;52.334;5.024;2023-04-03T06:10:07;103279.09;;;3.85;100.00
58955;BME280;45815;52.334;5.024;2023-04-03T06:12:32;103280.91;;;3.86;100.00
58955;BME280;45815;52.334;5.024;2023-04-03T06:14:58;103282.75;;;3.87;100.00
58955;BME280;45815;52.334;5.024;2023-04-03T06:17:23;103287.53;;;3.93;100.00
58955;BME280;45815;52.334;5.024;2023-04-03T06:19:49;103290.28;;;3.94;100.00
58955;BME280;45815;52.334;5.024;2023-04-03T06:22:15;103283.53;;;3.96;100.00
58955;BME280;45815;52.334;5.024;2023-04-03T06:24:41;103284.19;;;3.94;100.00
58955;BME280;45815;52.334;5.024;2023-04-03T06:27:06;103299.78;;;3.94;100.00
58955;BME280;45815;52.334;5.024;2023-04-03T06:29:32;103295.47;;;3.94;100.00
58955;BME280;45815;52.334;5.024;2023-04-03T06:31:57;103298.22;;;3.96;100.00
58955;BME280;45815;52.334;5.024;2023-04-03T06:34:23;103304.19;;;4.05;100.00
58955;BME280;45815;52.334;5.024;2023-04-03T06:36:48;103313.94;;;4.18;100.00
58955;BME280;45815;52.334;5.024;2023-04-03T06:39:17;103306.66;;;4.24;100.00
58955;BME280;45815;52.334;5.024;2023-04-03T06:41:45;103316.13;;;4.23;100.00
58955;BME280;45815;52.334;5.024;2023-04-03T06:44:10;103313.66;;;4.25;100.00
58955;BME280;45815;52.334;5.024;2023-04-03T06:46:38;103320.72;;;4.26;100.00
58955;BME280;45815;52.334;5.024;2023-04-03T06:49:04;103326.81;;;4.27;100.00
58955;BME280;45815;52.334;5.024;2023-04-03T06:51:30;103323.66;;;4.31;100.00
58955;BME280;45815;52.334;5.024;2023-04-03T06:53:57;103321.84;;;4.30;100.00
58955;BME280;45815;52.334;5.024;2023-04-03T06:56:23;103323.81;;;4.32;100.00
58955;BME280;45815;52.334;5.024;2023-04-03T06:58:50;103334.59;;;4.37;100.00
58955;BME280;45815;52.334;5.024;2023-04-03T07:01:17;103337.97;;;4.46;100.00
58955;BME280;45815;52.334;5.024;2023-04-03T07:03:45;103336.78;;;4.53;100.00
58955;BME280;45815;52.334;5.024;2023-04-03T07:06:12;103337.03;;;4.56;100.00
58955;BME280;45815;52.334;5.024;2023-04-03T07:08:39;103334.81;;;4.60;100.00
58955;BME280;45815;52.334;5.024;2023-04-03T07:11:05;103338.88;;;4.57;100.00
58955;BME280;45815;52.334;5.024;2023-04-03T07:13:31;103340.16;;;4.62;100.00
58955;BME280;45815;52.334;5.024;2023-04-03T07:15:58;103342.09;;;4.64;100.00
58955;BME280;45815;52.334;5.024;2023-04-03T07:18:23;103344.28;;;4.70;100.00
58955;BME280;45815;52.334;5.024;2023-04-03T07:20:49;103340.66;;;4.78;100.00
58955;BME280;45815;52.334;5.024;2023-04-03T07:23:14;103349.22;;;4.88;100.00
58955;BME280;45815;52.334;5.024;2023-04-03T07:25:48;103352.31;;;4.94;100.00
58955;BME280;45815;52.334;5.024;2023-04-03T07:28:14;103358.28;;;5.03;100.00
58955;BME280;45815;52.334;5.024;2023-04-03T07:31:04;103351.16;;;4.90;100.00
58955;BME280;45815;52.334;5.024;2023-04-03T07:33:31;103349.28;;;5.10;100.00
58955;BME280;45815;52.334;5.024;2023-04-03T07:35:57;103350.44;;;5.13;100.00
58955;BME280;45815;52.334;5.024;2023-04-03T07:38:23;103350.25;;;5.22;100.00
58955;BME280;45815;52.334;5.024;2023-04-03T07:40:50;103362.91;;;5.27;100.00
58955;BME280;45815;52.334;5.024;2023-04-03T07:43:16;103354.28;;;5.28;100.00
58955;BME280;45815;52.334;5.024;2023-04-03T07:45:42;103351.75;;;5.40;100.00
58955;BME280;45815;52.334;5.024;2023-04-03T07:48:11;103361.91;;;5.69;100.00
58955;BME280;45815;52.334;5.024;2023-04-03T07:50:40;103363.78;;;5.82;100.00
58955;BME280;45815;52.334;5.024;2023-04-03T07:53:05;103371.97;;;5.87;100.00
58955;BME280;45815;52.334;5.024;2023-04-03T07:55:32;103361.78;;;5.90;100.00
58955;BME280;45815;52.334;5.024;2023-04-03T07:57:57;103366.44;;;6.04;100.00
58955;BME280;45815;52.334;5.024;2023-04-03T08:00:23;103365.31;;;6.12;100.00
58955;BME280;45815;52.334;5.024;2023-04-03T08:02:48;103357.66;;;6.04;100.00
58955;BME280;45815;52.334;5.024;2023-04-03T08:05:17;103357.97;;;6.19;100.00
58955;BME280;45815;52.334;5.024;2023-04-03T08:07:43;103357.16;;;6.20;100.00
58955;BME280;45815;52.334;5.024;2023-04-03T08:10:08;103375.81;;;6.36;100.00
58955;BME280;45815;52.334;5.024;2023-04-03T08:12:34;103372.47;;;6.49;100.00
58955;BME280;45815;52.334;5.024;2023-04-03T08:15:00;103377.38;;;6.68;100.00
58955;BME280;45815;52.334;5.024;2023-04-03T08:17:26;103376.59;;;6.92;100.00
58955;BME280;45815;52.334;5.024;2023-04-03T08:19:51;103371.84;;;6.98;100.00
58955;BME280;45815;52.334;5.024;2023-04-03T08:22:17;103376.84;;;7.19;100.00
58955;BME280;45815;52.334;5.024;2023-04-03T08:24:42;103369.88;;;7.43;100.00
58955;BME280;45815;52.334;5.024;2023-04-03T08:27:07;103371.50;;;7.78;100.00
58955;BME280;45815;52.334;5.024;2023-04-03T08:29:33;103376.44;;;7.98;100.00
58955;BME280;45815;52.334;5.024;2023-04-03T08:31:58;103383.50;;;8.24;100.00
58955;BME280;45815;52.334;5.024;2023-04-03T08:34:24;103379.97;;;8.49;100.00
58955;BME280;45815;52.334;5.024;2023-04-03T08:36:49;103378.94;;;8.85;100.00
58955;BME280;45815;52.334;5.024;2023-04-03T08:39:16;103378.63;;;9.21;100.00
58955;BME280;45815;52.334;5.024;2023-04-03T08:41:44;103382.63;;;9.56;100.00
58955;BME280;45815;52.334;5.024;2023-04-03T08:49:32;103391.03;;;9.78;100.00
58955;BME280;45815;52.334;5.024;2023-04-03T08:52:02;103393.03;;;9.96;100.00
58955;BME280;45815;52.334;5.024;2023-04-03T08:54:48;103396.22;;;10.05;100.00
58955;BME280;45815;52.334;5.024;2023-04-03T08:57:15;103391.47;;;10.27;100.00
58955;BME280;45815;52.334;5.024;2023-04-03T08:59:41;103384.19;;;10.37;100.00
58955;BME280;45815;52.334;5.024;2023-04-03T09:02:31;103383.19;;;10.34;98.19
58955;BME280;45815;52.334;5.024;2023-04-03T09:04:58;103370.81;;;10.62;100.00
58955;BME280;45815;52.334;5.024;2023-04-03T09:07:39;103361.84;;;10.88;100.00
58955;BME280;45815;52.334;5.024;2023-04-03T09:10:11;103375.41;;;10.95;100.00
58955;BME280;45815;52.334;5.024;2023-04-03T09:12:41;103363.75;;;11.05;100.00
58955;BME280;45815;52.334;5.024;2023-04-03T09:15:24;103371.91;;;11.41;96.48
58955;BME280;45815;52.334;5.024;2023-04-03T09:18:04;103369.66;;;11.64;96.99
58955;BME280;45815;52.334;5.024;2023-04-03T09:25:40;103348.81;;;11.99;94.13
58955;BME280;45815;52.334;5.024;2023-04-03T09:28:06;103370.38;;;12.25;90.11
58955;BME280;45815;52.334;5.024;2023-04-03T09:30:35;103358.97;;;12.42;89.25
58955;BME280;45815;52.334;5.024;2023-04-03T09:33:01;103363.63;;;12.64;89.20
58955;BME280;45815;52.334;5.024;2023-04-03T09:35:29;103361.88;;;12.65;86.87
58955;BME280;45815;52.334;5.024;2023-04-03T09:40:38;103350.88;;;12.56;89.27
58955;BME280;45815;52.334;5.024;2023-04-03T09:43:24;103353.94;;;12.81;85.62
58955;BME280;45815;52.334;5.024;2023-04-03T09:45:50;103351.38;;;13.01;86.95
58955;BME280;45815;52.334;5.024;2023-04-03T09:48:18;103345.13;;;13.17;84.24
58955;BME280;45815;52.334;5.024;2023-04-03T09:53:36;103336.94;;;13.28;77.99
58955;BME280;45815;52.334;5.024;2023-04-03T09:58:43;103318.94;;;13.57;78.95
58955;BME280;45815;52.334;5.024;2023-04-03T10:01:23;103319.91;;;13.59;76.68
58955;BME280;45815;52.334;5.024;2023-04-03T10:06:53;103311.44;;;13.66;71.64
58955;BME280;45815;52.334;5.024;2023-04-03T10:09:26;103312.13;;;13.62;76.42
58955;BME280;45815;52.334;5.024;2023-04-03T10:12:09;103318.69;;;13.33;60.46
58955;BME280;45815;52.334;5.024;2023-04-03T10:14:56;103308.25;;;13.54;69.27
58955;BME280;45815;52.334;5.024;2023-04-03T10:17:36;103318.03;;;13.57;74.36
58955;BME280;45815;52.334;5.024;2023-04-03T10:23:02;103299.41;;;13.73;70.72
58955;BME280;45815;52.334;5.024;2023-04-03T10:25:40;103310.91;;;13.93;72.46
58955;BME280;45815;52.334;5.024;2023-04-03T10:28:31;103304.34;;;13.85;58.98
58955;BME280;45815;52.334;5.024;2023-04-03T10:39:09;103295.66;;;14.28;58.80
58955;BME280;45815;52.334;5.024;2023-04-03T10:41:58;103289.81;;;14.54;69.52
58955;BME280;45815;52.334;5.024;2023-04-03T10:44:45;103285.66;;;14.40;59.61
58955;BME280;45815;52.334;5.024;2023-04-03T10:47:24;103288.72;;;14.70;61.43
58955;BME280;45815;52.334;5.024;2023-04-03T10:55:19;103297.28;;;14.65;54.93
58955;BME280;45815;52.334;5.024;2023-04-03T10:57:49;103286.31;;;14.55;57.24
58955;BME280;45815;52.334;5.024;2023-04-03T11:00:21;103299.22;;;14.69;57.96
58955;BME280;45815;52.334;5.024;2023-04-03T11:02:54;103284.53;;;14.77;52.33
58955;BME280;45815;52.334;5.024;2023-04-03T11:05:32;103282.28;;;14.86;52.90
58955;BME280;45815;52.334;5.024;2023-04-03T11:08:04;103285.06;;;15.12;54.49
58955;BME280;45815;52.334;5.024;2023-04-03T11:10:42;103289.41;;;14.87;48.36
58955;BME280;45815;52.334;5.024;2023-04-03T11:13:15;103282.66;;;14.95;52.08
58955;BME280;45815;52.334;5.024;2023-04-03T11:15:42;103285.91;;;15.33;53.47
58955;BME280;45815;52.334;5.024;2023-04-03T11:18:17;103273.88;;;15.41;51.50
58955;BME280;45815;52.334;5.024;2023-04-03T11:20:57;103271.22;;;15.41;48.63
58955;BME280;45815;52.334;5.024;2023-04-03T11:23:33;103272.19;;;15.44;53.69
58955;BME280;45815;52.334;5.024;2023-04-03T11:26:21;103272.88;;;15.62;49.67
58955;BME280;45815;52.334;5.024;2023-04-03T11:28:53;103266.41;;;16.02;53.78
58955;BME280;45815;52.334;5.024;2023-04-03T11:31:40;103254.75;;;15.97;48.13
58955;BME280;45815;52.334;5.024;2023-04-03T11:34:37;103263.41;;;16.17;50.97
58955;BME280;45815;52.334;5.024;2023-04-03T11:37:27;103272.34;;;16.46;48.18
58955;BME280;45815;52.334;5.024;2023-04-03T11:40:00;103269.66;;;16.72;48.16
58955;BME280;45815;52.334;5.024;2023-04-03T11:42:37;103266.41;;;16.53;45.97
58955;BME280;45815;52.334;5.024;2023-04-03T11:47:50;103257.88;;;16.89;49.23
58955;BME280;45815;52.334;5.024;2023-04-03T11:58:18;103248.00;;;17.44;45.79
58955;BME280;45815;52.334;5.024;2023-04-03T12:18:57;103201.16;;;18.82;37.86
58955;BME280;45815;52.334;5.024;2023-04-03T12:26:30;103187.69;;;19.15;38.45
58955;BME280;45815;52.334;5.024;2023-04-03T12:28:56;103188.63;;;19.17;40.48
58955;BME280;45815;52.334;5.024;2023-04-03T12:31:25;103182.03;;;19.00;38.52
58955;BME280;45815;52.334;5.024;2023-04-03T12:34:04;103181.63;;;18.82;36.30
58955;BME280;45815;52.334;5.024;2023-04-03T12:36:42;103168.03;;;19.10;37.62
58955;BME280;45815;52.334;5.024;2023-04-03T12:42:24;103165.50;;;19.60;34.64
58955;BME280;45815;52.334;5.024;2023-04-03T12:45:13;103162.47;;;19.42;38.25
58955;BME280;45815;52.334;5.024;2023-04-03T12:47:43;103164.44;;;19.52;39.80
58955;BME280;45815;52.334;5.024;2023-04-03T12:52:51;103168.25;;;20.14;34.75
58955;BME280;45815;52.334;5.024;2023-04-03T12:55:19;103161.69;;;20.50;36.39
58955;BME280;45815;52.334;5.024;2023-04-03T12:57:46;103156.69;;;20.71;35.09
58955;BME280;45815;52.334;5.024;2023-04-03T13:00:38;103151.03;;;20.50;30.92
58955;BME280;45815;52.334;5.024;2023-04-03T13:03:06;103151.38;;;20.74;34.00
58955;BME280;45815;52.334;5.024;2023-04-03T13:05:32;103160.16;;;20.08;35.09
58955;BME280;45815;52.334;5.024;2023-04-03T13:08:02;103163.59;;;19.53;34.17
58955;BME280;45815;52.334;5.024;2023-04-03T13:10:29;103165.09;;;19.39;36.52
58955;BME280;45815;52.334;5.024;2023-04-03T13:12:57;103158.78;;;19.35;35.22
58955;BME280;45815;52.334;5.024;2023-04-03T13:15:30;103156.75;;;19.21;35.89
58955;BME280;45815;52.334;5.024;2023-04-03T13:18:05;103148.31;;;18.99;34.50
58955;BME280;45815;52.334;5.024;2023-04-03T13:20:48;103142.75;;;18.88;32.49
58955;BME280;45815;52.334;5.024;2023-04-03T13:23:15;103146.88;;;19.16;34.37
58955;BME280;45815;52.334;5.024;2023-04-03T13:25:45;103146.19;;;19.25;32.61
58955;BME280;45815;52.334;5.024;2023-04-03T13:28:15;103142.31;;;19.09;34.20
58955;BME280;45815;52.334;5.024;2023-04-03T13:31:04;103141.97;;;18.94;35.35
58955;BME280;45815;52.334;5.024;2023-04-03T13:33:34;103125.44;;;19.10;35.79
58955;BME280;45815;52.334;5.024;2023-04-03T13:36:18;103140.19;;;18.93;36.47
58955;BME280;45815;52.334;5.024;2023-04-03T13:38:45;103135.16;;;18.67;34.73
58955;BME280;45815;52.334;5.024;2023-04-03T13:41:39;103138.19;;;18.45;33.77
58955;BME280;45815;52.334;5.024;2023-04-03T13:44:35;103138.75;;;18.30;33.34
58955;BME280;45815;52.334;5.024;2023-04-03T13:47:20;103127.22;;;18.29;34.13
58955;BME280;45815;52.334;5.024;2023-04-03T13:50:01;103141.84;;;18.12;33.59
58955;BME280;45815;52.334;5.024;2023-04-03T13:52:33;103141.72;;;18.06;37.29
58955;BME280;45815;52.334;5.024;2023-04-03T13:55:16;103137.81;;;18.28;39.70
58955;BME280;45815;52.334;5.024;2023-04-03T14:03:24;103133.19;;;18.19;36.03
58955;BME280;45815;52.334;5.024;2023-04-03T14:05:51;103123.91;;;18.40;37.18
58955;BME280;45815;52.334;5.024;2023-04-03T14:08:18;103119.06;;;18.61;36.14
58955;BME280;45815;52.334;5.024;2023-04-03T14:10:45;103122.59;;;18.60;38.78
58955;BME280;45815;52.334;5.024;2023-04-03T14:13:17;103114.03;;;18.34;36.71
58955;BME280;45815;52.334;5.024;2023-04-03T14:15:44;103114.69;;;17.87;36.22
58955;BME280;45815;52.334;5.024;2023-04-03T14:18:11;103101.06;;;18.10;36.20
58955;BME280;45815;52.334;5.024;2023-04-03T14:20:37;103100.41;;;18.20;37.61
58955;BME280;45815;52.334;5.024;2023-04-03T14:23:03;103098.41;;;18.10;38.37
58955;BME280;45815;52.334;5.024;2023-04-03T14:25:29;103103.00;;;18.17;39.19
58955;BME280;45815;52.334;5.024;2023-04-03T14:27:54;103101.03;;;18.08;36.63
58955;BME280;45815;52.334;5.024;2023-04-03T14:30:24;103087.22;;;17.88;37.97